Time;durP1;ratioP1;P1;durP2;ratioP2;P2;SDS_P1;SDS_P2;PMS_P1;PMS_P2;Temp;Humidity;BMP_temperature;BMP_pressure;BME280_temperature;BME280_humidity;BME280_pressure;Samples;Min_cycle;Max_cycle;Signal;HPM_P1;HPM_P2
2021/03/10 00:00:10;;;;;;;17.75;9.90;;;;;;;5.15;78.33;101262.75;4952046;28;20036;-73
2021/03/10 00:02:39;;;;;;;19.83;10.63;;;;;;;5.19;78.14;101266.38;4953252;28;20061;-73
2021/03/10 00:05:06;;;;;;;20.08;9.98;;;;;;;5.22;77.08;101268.44;4952848;29;20424;-73
2021/03/10 00:07:32;;;;;;;21.55;10.18;;;;;;;5.37;76.05;101271.53;4953915;28;20039;-73
2021/03/10 00:09:57;;;;;;;18.90;10.07;;;;;;;5.36;76.19;101274.53;4954962;28;20038;-73
2021/03/10 00:12:22;;;;;;;23.63;10.35;;;;;;;5.30;75.69;101273.84;4952466;28;20071;-73
2021/03/10 00:14:48;;;;;;;17.85;10.07;;;;;;;5.20;76.13;101270.63;4957256;28;20110;-73
2021/03/10 00:17:13;;;;;;;22.85;10.95;;;;;;;5.16;77.17;101277.66;4953468;28;20047;-73
2021/03/10 00:19:41;;;;;;;17.77;9.95;;;;;;;5.22;77.16;101279.13;4952870;28;20502;-73
2021/03/10 00:22:06;;;;;;;23.67;11.13;;;;;;;5.26;76.54;101270.22;4953354;28;20163;-73
2021/03/10 00:24:32;;;;;;;21.10;11.05;;;;;;;5.33;76.12;101270.56;4953732;28;20129;-73
2021/03/10 00:26:57;;;;;;;20.80;10.20;;;;;;;5.32;74.98;101271.66;4953041;28;20050;-73
2021/03/10 00:29:22;;;;;;;20.33;9.75;;;;;;;5.36;74.75;101277.97;4953028;28;20046;-73
2021/03/10 00:31:48;;;;;;;17.17;9.45;;;;;;;5.41;75.07;101274.38;4952715;28;20067;-73
2021/03/10 00:34:13;;;;;;;22.35;10.90;;;;;;;5.06;75.02;101286.69;4951795;29;20101;-73
2021/03/10 00:36:39;;;;;;;18.92;10.07;;;;;;;4.95;76.51;101285.34;4953212;28;20039;-73
2021/03/10 00:39:04;;;;;;;21.67;10.57;;;;;;;5.05;76.56;101285.09;4953436;28;20031;-73
2021/03/10 00:41:30;;;;;;;21.65;10.95;;;;;;;5.15;75.66;101276.88;4949939;28;20039;-73
2021/03/10 00:43:55;;;;;;;21.90;11.00;;;;;;;5.42;74.92;101275.94;4952631;29;20499;-73
2021/03/10 00:46:20;;;;;;;22.70;10.88;;;;;;;5.23;74.98;101270.81;4951959;28;20055;-73
2021/03/10 00:48:46;;;;;;;19.75;9.90;;;;;;;5.06;75.74;101278.69;4953353;29;20043;-74
2021/03/10 00:51:11;;;;;;;23.13;9.85;;;;;;;5.28;75.07;101267.25;4951450;28;20043;-74
2021/03/10 00:53:37;;;;;;;21.73;10.10;;;;;;;5.39;74.56;101266.69;4952068;29;20038;-74
2021/03/10 00:56:02;;;;;;;20.98;10.60;;;;;;;5.32;74.44;101270.88;4952705;29;20027;-75
2021/03/10 00:58:28;;;;;;;19.20;10.20;;;;;;;5.26;74.18;101266.75;4951382;28;20120;-74
2021/03/10 01:00:53;;;;;;;17.85;9.90;;;;;;;5.19;75.27;101269.84;4948989;28;20045;-75
2021/03/10 01:03:19;;;;;;;19.90;9.98;;;;;;;5.16;75.37;101275.78;4952121;28;20428;-74
2021/03/10 01:05:44;;;;;;;20.42;10.55;;;;;;;5.12;75.31;101277.50;4952099;28;20454;-75
2021/03/10 01:08:11;;;;;;;20.15;9.60;;;;;;;5.09;75.93;101274.63;4950867;28;20039;-75
2021/03/10 01:10:38;;;;;;;19.02;9.80;;;;;;;5.04;75.79;101278.19;4951648;28;20051;-74
2021/03/10 01:13:04;;;;;;;20.08;10.32;;;;;;;5.04;75.97;101277.41;4951904;28;20046;-73
2021/03/10 01:15:29;;;;;;;16.95;9.32;;;;;;;5.19;75.49;101279.72;4951535;28;20035;-74
2021/03/10 01:17:55;;;;;;;18.38;9.65;;;;;;;5.13;75.29;101273.72;4952077;29;20727;-73
2021/03/10 01:20:23;;;;;;;23.48;10.10;;;;;;;5.17;75.71;101276.56;4951004;28;20039;-75
2021/03/10 01:22:48;;;;;;;21.58;11.27;;;;;;;5.07;75.68;101277.59;4951673;28;20027;-74
2021/03/10 01:25:14;;;;;;;19.38;9.93;;;;;;;5.21;75.53;101273.00;4951793;29;20377;-74
2021/03/10 01:27:40;;;;;;;18.67;9.45;;;;;;;5.30;74.16;101267.72;4952160;28;20035;-74
2021/03/10 01:30:10;;;;;;;20.25;10.23;;;;;;;5.31;74.49;101266.63;4948407;28;20507;-74
2021/03/10 01:32:36;;;;;;;20.30;9.65;;;;;;;5.29;74.09;101268.81;4950008;29;20038;-74
2021/03/10 01:35:03;;;;;;;20.83;10.80;;;;;;;5.14;75.04;101272.63;4951554;28;20035;-74
2021/03/10 01:37:28;;;;;;;21.60;10.50;;;;;;;5.19;75.28;101271.72;4950911;28;20062;-74
2021/03/10 01:39:54;;;;;;;19.75;9.60;;;;;;;5.27;73.88;101271.00;4965947;28;20079;-74
2021/03/10 01:42:21;;;;;;;17.63;9.27;;;;;;;5.27;74.34;101266.44;4951659;28;20042;-75
2021/03/10 01:44:47;;;;;;;20.95;9.48;;;;;;;5.23;74.27;101278.81;4949993;29;20023;-74
2021/03/10 01:47:13;;;;;;;19.33;9.70;;;;;;;5.17;74.01;101265.88;4951225;28;20515;-74
2021/03/10 01:49:40;;;;;;;20.10;9.38;;;;;;;5.11;73.54;101264.44;4949517;28;20047;-74
2021/03/10 01:52:06;;;;;;;20.13;10.23;;;;;;;5.18;73.30;101257.59;4951364;28;20067;-74
2021/03/10 01:54:31;;;;;;;18.98;9.52;;;;;;;5.27;72.59;101263.78;4950318;28;20127;-75
2021/03/10 01:56:57;;;;;;;18.45;8.93;;;;;;;5.09;72.54;101259.41;4950467;29;20039;-75
2021/03/10 01:59:23;;;;;;;19.95;9.60;;;;;;;5.09;73.20;101264.72;4965314;28;20035;-74
2021/03/10 02:01:49;;;;;;;22.45;10.15;;;;;;;4.99;74.09;101269.53;4950879;28;20027;-74
2021/03/10 02:04:16;;;;;;;16.95;9.20;;;;;;;5.00;74.12;101265.75;4948850;28;20103;-74
2021/03/10 02:06:52;;;;;;;19.73;9.30;;;;;;;5.01;73.62;101262.81;4951009;28;20444;-74
2021/03/10 02:10:02;;;;;;;19.48;9.27;;;;;;;5.16;72.04;101257.09;4952525;28;20117;-75
2021/03/10 02:12:41;;;;;;;19.60;8.88;;;;;;;5.14;71.99;101267.31;4950282;28;20082;-74
2021/03/10 02:15:24;;;;;;;17.42;9.00;;;;;;;4.94;72.60;101261.63;4950706;29;20035;-73
2021/03/10 02:17:54;;;;;;;21.70;9.95;;;;;;;4.97;73.20;101255.69;4949805;29;20798;-75
2021/03/10 02:20:34;;;;;;;18.33;9.30;;;;;;;4.98;72.95;101265.28;4950117;28;20089;-74
2021/03/10 02:23:37;;;;;;;15.52;8.20;;;;;;;5.01;72.16;101260.16;4947810;28;20049;-75
2021/03/10 02:26:08;;;;;;;17.48;9.20;;;;;;;4.89;72.73;101264.41;4963349;28;20121;-75
2021/03/10 02:28:37;;;;;;;19.42;9.55;;;;;;;4.84;73.46;101269.88;4950242;28;20050;-74
2021/03/10 02:33:38;;;;;;;17.67;9.15;;;;;;;4.89;73.37;101267.09;4945495;29;20043;-72
2021/03/10 02:36:14;;;;;;;20.00;9.30;;;;;;;4.78;73.62;101269.19;4949163;28;20134;-72
2021/03/10 02:38:45;;;;;;;17.00;8.77;;;;;;;4.77;73.68;101270.28;4938854;28;20757;-72
2021/03/10 02:41:12;;;;;;;17.42;8.82;;;;;;;4.90;73.34;101271.31;4939211;28;20078;-72
2021/03/10 02:43:39;;;;;;;17.67;8.63;;;;;;;4.92;72.53;101269.94;4930137;29;20032;-72
2021/03/10 02:46:06;;;;;;;16.60;8.95;;;;;;;4.84;72.80;101273.31;4927315;29;20076;-72
2021/03/10 02:48:33;;;;;;;16.73;7.78;;;;;;;4.66;72.18;101274.25;4941564;28;20042;-72
2021/03/10 02:51:00;;;;;;;16.05;8.38;;;;;;;4.70;72.54;101267.25;4929025;29;20036;-72
2021/03/10 02:53:26;;;;;;;17.02;8.45;;;;;;;4.81;72.38;101278.47;4931054;29;20408;-72
2021/03/10 02:55:52;;;;;;;17.45;8.25;;;;;;;4.76;72.30;101265.25;4919939;29;20027;-72
2021/03/10 02:58:18;;;;;;;17.30;8.65;;;;;;;4.79;71.73;101262.78;4925402;29;20043;-72
2021/03/10 03:00:43;;;;;;;20.27;8.32;;;;;;;4.87;71.60;101272.72;4939345;28;20047;-72
2021/03/10 03:03:09;;;;;;;16.30;8.35;;;;;;;4.88;71.11;101266.28;4923308;29;21427;-72
2021/03/10 03:05:35;;;;;;;16.70;8.68;;;;;;;4.86;71.67;101265.81;4924847;29;20115;-72
2021/03/10 03:08:03;;;;;;;16.85;7.97;;;;;;;4.65;71.25;101266.53;4923923;29;20119;-72
2021/03/10 03:10:37;;;;;;;16.33;8.43;;;;;;;4.59;71.46;101266.66;4929263;29;20027;-72
2021/03/10 03:13:07;;;;;;;18.48;8.18;;;;;;;4.59;71.90;101257.88;4934452;29;20027;-72
2021/03/10 03:15:33;;;;;;;15.98;8.32;;;;;;;4.65;71.95;101263.88;4931169;29;20036;-72
2021/03/10 03:18:00;;;;;;;16.17;8.35;;;;;;;4.72;71.02;101265.06;4928217;29;20114;-72
2021/03/10 03:20:26;;;;;;;13.38;7.80;;;;;;;4.55;71.57;101264.88;4926555;29;20060;-72
2021/03/10 03:22:54;;;;;;;15.77;8.07;;;;;;;4.59;71.24;101260.53;4948258;28;20019;-72
2021/03/10 03:25:24;;;;;;;15.57;7.97;;;;;;;4.63;71.17;101250.84;4929112;29;20037;-72
2021/03/10 03:27:55;;;;;;;20.48;8.30;;;;;;;4.56;70.54;101258.47;4932300;29;20504;-72
2021/03/10 03:30:43;;;;;;;15.15;7.38;;;;;;;4.63;70.10;101261.50;4933152;29;20028;-72
2021/03/10 03:33:11;;;;;;;15.07;7.50;;;;;;;4.54;69.98;101263.31;4907062;29;20235;-72
2021/03/10 03:35:37;;;;;;;15.75;7.93;;;;;;;4.54;70.14;101264.13;4905093;29;20059;-72
2021/03/10 03:38:04;;;;;;;13.95;7.78;;;;;;;4.51;69.95;101254.03;4906283;29;20472;-72
2021/03/10 03:40:31;;;;;;;14.02;7.80;;;;;;;4.40;69.96;101250.00;4905741;29;20430;-72
2021/03/10 03:42:56;;;;;;;13.93;7.63;;;;;;;4.23;71.33;101247.16;4906952;29;20044;-72
2021/03/10 03:45:23;;;;;;;13.35;7.25;;;;;;;4.29;70.76;101253.19;4906014;29;20056;-72
2021/03/10 03:47:52;;;;;;;13.68;7.22;;;;;;;4.27;71.05;101242.81;4909539;29;20145;-72
2021/03/10 03:50:18;;;;;;;15.07;7.32;;;;;;;4.35;70.23;101249.31;4904649;29;20103;-72
2021/03/10 03:52:44;;;;;;;13.68;7.38;;;;;;;4.42;69.01;101247.03;4909703;29;20046;-72
2021/03/10 03:55:11;;;;;;;11.07;6.43;;;;;;;4.28;69.94;101232.94;4909894;29;20052;-72
2021/03/10 03:57:37;;;;;;;15.20;7.88;;;;;;;4.18;70.49;101233.94;4908394;29;20466;-72
2021/03/10 04:00:12;;;;;;;13.07;6.32;;;;;;;4.03;70.45;101230.78;4902332;29;20040;-72
2021/03/10 04:02:38;;;;;;;12.57;7.03;;;;;;;4.09;70.97;101219.72;4910940;29;20033;-72
2021/03/10 04:05:05;;;;;;;12.63;6.72;;;;;;;4.06;69.97;101222.22;4904518;29;20112;-72
2021/03/10 04:07:30;;;;;;;12.13;6.32;;;;;;;3.72;69.47;101216.50;4905288;29;20140;-72
2021/03/10 04:09:56;;;;;;;14.48;6.72;;;;;;;3.74;69.96;101232.94;4916023;29;20123;-72
2021/03/10 04:12:21;;;;;;;11.95;6.18;;;;;;;3.76;70.31;101238.75;4923384;29;20060;-73
2021/03/10 04:14:46;;;;;;;16.17;6.93;;;;;;;3.67;71.02;101234.13;4928194;29;20036;-73
2021/03/10 04:17:12;;;;;;;12.65;6.43;;;;;;;3.56;71.39;101234.59;4923106;29;20033;-72
2021/03/10 04:19:37;;;;;;;12.38;6.53;;;;;;;3.36;71.90;101242.94;4924263;29;20434;-72
2021/03/10 04:22:03;;;;;;;14.00;7.13;;;;;;;3.34;72.56;101240.56;4944358;28;20063;-72
2021/03/10 04:24:28;;;;;;;15.02;6.60;;;;;;;3.23;73.08;101241.78;4927829;29;20035;-72
2021/03/10 04:26:54;;;;;;;12.52;6.32;;;;;;;3.34;72.21;101235.25;4924767;29;20078;-72
2021/03/10 04:29:19;;;;;;;12.80;5.95;;;;;;;3.34;70.81;101248.56;4929344;29;20079;-72
2021/03/10 04:31:45;;;;;;;12.48;6.35;;;;;;;3.29;71.38;101243.28;4926308;29;21616;-72
2021/03/10 04:34:10;;;;;;;16.02;6.68;;;;;;;3.25;71.26;101242.28;4930989;29;20110;-72
2021/03/10 04:36:35;;;;;;;12.95;5.93;;;;;;;3.43;70.51;101238.81;4927055;29;20035;-72
2021/03/10 04:39:01;;;;;;;12.30;5.93;;;;;;;3.36;70.65;101238.41;4927399;29;20112;-72
2021/03/10 04:41:26;;;;;;;11.80;5.97;;;;;;;3.41;70.55;101242.84;4933455;29;20051;-72
2021/03/10 04:43:52;;;;;;;12.20;5.80;;;;;;;3.28;70.61;101241.72;4937375;28;20030;-72
2021/03/10 04:46:18;;;;;;;9.35;5.40;;;;;;;3.14;71.01;101246.22;4936716;28;20067;-72
2021/03/10 04:48:43;;;;;;;10.65;5.32;;;;;;;3.17;70.91;101248.31;4930743;29;20036;-72
2021/03/10 04:51:09;;;;;;;9.27;5.50;;;;;;;3.12;69.57;101251.03;4926675;29;20035;-72
2021/03/10 04:53:34;;;;;;;10.80;5.50;;;;;;;3.13;71.18;101260.59;4924917;29;20031;-73
2021/03/10 04:56:00;;;;;;;8.95;5.35;;;;;;;3.24;69.76;101270.00;4930804;29;20031;-72
2021/03/10 04:58:25;;;;;;;10.52;5.50;;;;;;;3.06;70.84;101270.03;4928702;29;20083;-72
2021/03/10 05:00:51;;;;;;;9.63;4.88;;;;;;;3.19;69.33;101271.94;4925895;29;20051;-72
2021/03/10 05:03:16;;;;;;;9.60;5.10;;;;;;;3.12;69.63;101264.31;4926453;29;20115;-72
2021/03/10 05:05:41;;;;;;;12.73;6.05;;;;;;;3.16;69.80;101252.03;4929276;29;20047;-72
2021/03/10 05:08:07;;;;;;;10.82;5.68;;;;;;;3.19;69.14;101259.44;4929416;29;20052;-72
2021/03/10 05:10:32;;;;;;;13.40;6.03;;;;;;;3.18;68.54;101260.50;4927809;29;20152;-72
2021/03/10 05:12:58;;;;;;;9.32;5.05;;;;;;;3.24;68.04;101251.38;4930812;29;20043;-72
2021/03/10 05:15:23;;;;;;;10.25;5.63;;;;;;;3.06;67.47;101257.50;4929450;29;20039;-72
2021/03/10 05:17:49;;;;;;;8.07;4.38;;;;;;;3.02;68.16;101253.84;4927397;29;20102;-72
2021/03/10 05:20:14;;;;;;;9.05;4.93;;;;;;;3.12;67.87;101255.53;4929690;29;20031;-72
2021/03/10 05:22:40;;;;;;;8.48;5.25;;;;;;;2.93;67.60;101247.59;4928117;29;20086;-72
2021/03/10 05:25:08;;;;;;;8.63;5.00;;;;;;;3.07;67.41;101237.03;4927998;29;20515;-72
2021/03/10 05:27:34;;;;;;;9.35;4.97;;;;;;;2.88;67.66;101239.72;4927586;29;20032;-72
2021/03/10 05:30:02;;;;;;;10.27;5.38;;;;;;;2.99;67.82;101235.00;4927359;29;20114;-72
2021/03/10 05:32:27;;;;;;;8.00;4.85;;;;;;;3.03;67.53;101230.69;4925359;29;20042;-72
2021/03/10 05:34:53;;;;;;;9.82;5.22;;;;;;;2.85;67.84;101237.63;4926617;29;20031;-72
2021/03/10 05:37:18;;;;;;;10.10;5.03;;;;;;;2.59;68.91;101234.50;4922763;29;20433;-72
2021/03/10 05:39:44;;;;;;;10.93;5.90;;;;;;;2.60;70.30;101251.25;4927305;29;20036;-72
2021/03/10 05:42:10;;;;;;;10.13;5.57;;;;;;;2.51;70.70;101247.66;4940544;28;20027;-72
2021/03/10 05:44:36;;;;;;;10.70;5.50;;;;;;;2.45;71.25;101248.81;4942693;28;20047;-72
2021/03/10 05:47:01;;;;;;;10.18;5.22;;;;;;;2.52;71.12;101254.56;4929239;29;20039;-72
2021/03/10 05:49:27;;;;;;;9.40;5.40;;;;;;;2.60;71.08;101245.94;4928769;29;20035;-72
2021/03/10 05:51:52;;;;;;;13.00;5.35;;;;;;;2.60;71.01;101240.63;4925316;29;20055;-72
2021/03/10 05:54:21;;;;;;;12.75;5.88;;;;;;;2.52;71.63;101239.41;4925552;29;20042;-72
2021/03/10 05:56:47;;;;;;;11.55;5.57;;;;;;;2.49;71.89;101245.31;4928411;29;20046;-72
2021/03/10 05:59:13;;;;;;;10.70;5.72;;;;;;;2.62;71.03;101249.09;4926138;29;20032;-72
2021/03/10 06:01:38;;;;;;;10.38;5.35;;;;;;;2.59;71.13;101250.47;4926239;29;20039;-72
2021/03/10 06:04:05;;;;;;;9.30;5.47;;;;;;;2.57;70.75;101251.84;4936886;28;20051;-72
2021/03/10 06:06:39;;;;;;;13.45;5.47;;;;;;;2.35;72.86;101259.56;4925495;29;21712;-72
2021/03/10 06:09:14;;;;;;;13.20;5.18;;;;;;;2.23;72.46;101259.16;4930074;29;20139;-72
2021/03/10 06:11:59;;;;;;;10.32;4.82;;;;;;;2.34;72.83;101258.00;4921285;29;20059;-72
2021/03/10 06:14:26;;;;;;;13.95;5.18;;;;;;;2.47;72.75;101251.97;4924287;29;20039;-72
2021/03/10 06:17:03;;;;;;;10.93;5.40;;;;;;;2.59;73.08;101255.00;4921357;29;20040;-72
2021/03/10 06:19:29;;;;;;;10.30;4.93;;;;;;;2.57;72.07;101252.66;4921032;29;20067;-72
2021/03/10 06:21:54;;;;;;;11.30;5.20;;;;;;;2.48;72.52;101264.97;4925054;29;20032;-72
2021/03/10 06:24:31;;;;;;;9.55;5.38;;;;;;;2.32;73.63;101262.81;4926395;29;20055;-72
2021/03/10 06:26:56;;;;;;;10.98;5.38;;;;;;;2.45;73.98;101256.78;4925634;29;20043;-72
2021/03/10 06:29:21;;;;;;;13.95;5.97;;;;;;;2.62;72.59;101254.41;4935759;28;20064;-72
2021/03/10 06:31:47;;;;;;;11.75;5.28;;;;;;;2.50;70.98;101260.16;4944318;28;20036;-72
2021/03/10 06:34:15;;;;;;;10.52;5.40;;;;;;;2.67;71.69;101263.13;4922510;29;20051;-73
2021/03/10 06:36:49;;;;;;;11.15;5.18;;;;;;;2.66;69.39;101255.44;4921543;29;20116;-73
2021/03/10 06:39:29;;;;;;;11.55;5.72;;;;;;;2.91;69.41;101260.41;4927844;29;20032;-73
2021/03/10 06:41:55;;;;;;;9.98;5.40;;;;;;;2.92;69.04;101254.00;4930485;29;20118;-73
2021/03/10 06:44:23;;;;;;;9.98;5.35;;;;;;;3.06;68.29;101260.16;4931838;29;20114;-73
2021/03/10 06:46:55;;;;;;;9.77;5.32;;;;;;;3.30;66.46;101270.69;4926961;29;20032;-73
2021/03/10 06:49:21;;;;;;;11.02;4.97;;;;;;;3.15;67.00;101253.13;4931597;29;20035;-73
2021/03/10 06:52:00;;;;;;;11.18;5.53;;;;;;;3.38;67.06;101254.88;4930215;29;20713;-74
2021/03/10 06:54:30;;;;;;;10.80;5.50;;;;;;;3.35;66.63;101257.31;4920844;29;20618;-73
2021/03/10 06:57:07;;;;;;;10.82;5.60;;;;;;;3.03;67.74;101271.38;4931553;29;20040;-72
2021/03/10 06:59:42;;;;;;;9.75;5.25;;;;;;;3.03;68.31;101279.38;4926437;29;20058;-73
2021/03/10 07:02:13;;;;;;;11.82;5.47;;;;;;;3.28;67.45;101273.66;4927737;29;20091;-72
2021/03/10 07:04:41;;;;;;;9.75;5.57;;;;;;;3.22;67.69;101274.03;4928583;29;20251;-73
2021/03/10 07:07:08;;;;;;;12.70;5.82;;;;;;;3.43;66.96;101283.25;4925272;29;20099;-72
2021/03/10 07:09:34;;;;;;;11.60;6.35;;;;;;;3.58;65.07;101293.69;4927900;29;20047;-72
2021/03/10 07:12:00;;;;;;;13.20;5.75;;;;;;;3.65;65.61;101281.56;4934635;29;20110;-73
2021/03/10 07:14:27;;;;;;;10.00;5.18;;;;;;;3.59;66.08;101288.06;4933112;29;20044;-73
2021/03/10 07:16:52;;;;;;;11.77;6.00;;;;;;;3.67;65.79;101291.91;4935676;29;20087;-72
2021/03/10 07:19:18;;;;;;;9.88;5.78;;;;;;;3.52;65.98;101290.28;4934150;29;20035;-73
2021/03/10 07:22:00;;;;;;;14.13;5.07;;;;;;;3.43;67.25;101294.69;4929028;29;20050;-72
2021/03/10 07:24:47;;;;;;;9.75;5.25;;;;;;;3.41;66.50;101302.19;4921521;28;20097;-71
2021/03/10 07:27:16;;;;;;;11.10;5.60;;;;;;;3.27;67.11;101309.31;4931594;29;20080;-72
2021/03/10 07:29:42;;;;;;;13.27;5.57;;;;;;;3.84;65.13;101304.66;4928674;29;20083;-71
2021/03/10 07:32:09;;;;;;;10.43;5.32;;;;;;;3.86;65.00;101299.81;4924376;29;20040;-72
2021/03/10 07:34:36;;;;;;;11.50;5.45;;;;;;;3.99;63.95;101304.41;4947187;28;20044;-72
2021/03/10 07:37:16;;;;;;;11.82;5.97;;;;;;;4.09;64.21;101296.22;4928310;29;20135;-72
2021/03/10 07:39:42;;;;;;;14.25;6.40;;;;;;;3.77;64.77;101298.94;4929723;29;20040;-73
2021/03/10 07:42:15;;;;;;;12.15;5.80;;;;;;;3.80;64.84;101301.00;4933438;29;20099;-73
2021/03/10 07:44:57;;;;;;;13.10;5.78;;;;;;;3.57;64.67;101302.72;4930832;29;20520;-73
2021/03/10 07:47:23;;;;;;;9.60;5.13;;;;;;;3.74;65.47;101304.81;4932853;29;20147;-73
2021/03/10 07:49:59;;;;;;;12.02;6.18;;;;;;;3.78;65.39;101303.16;4928296;29;20111;-72
2021/03/10 07:52:28;;;;;;;14.57;6.22;;;;;;;3.57;66.29;101300.88;4928386;29;20036;-72
2021/03/10 07:55:00;;;;;;;12.57;6.05;;;;;;;3.94;65.45;101297.28;4927826;29;20032;-72
2021/03/10 07:57:26;;;;;;;10.45;5.72;;;;;;;4.17;64.52;101287.53;4924999;29;20505;-72
2021/03/10 07:59:54;;;;;;;10.30;5.60;;;;;;;4.28;63.69;101296.91;4932844;29;20046;-72
2021/03/10 08:02:20;;;;;;;11.00;6.25;;;;;;;4.47;63.26;101300.28;4928436;29;20182;-73
2021/03/10 08:04:59;;;;;;;10.68;6.15;;;;;;;4.32;63.60;101296.03;4932256;29;20043;-72
2021/03/10 08:07:26;;;;;;;12.30;6.25;;;;;;;4.10;66.24;101295.13;4934362;29;20043;-72
2021/03/10 08:09:53;;;;;;;12.02;6.07;;;;;;;4.28;65.97;101295.03;4928430;29;20123;-72
2021/03/10 08:12:30;;;;;;;13.85;6.15;;;;;;;4.33;65.56;101296.81;4932490;29;20032;-73
2021/03/10 08:14:56;;;;;;;15.60;6.95;;;;;;;4.29;66.89;101298.50;4929653;29;20461;-72
2021/03/10 08:17:24;;;;;;;12.52;7.18;;;;;;;4.29;66.70;101287.84;4934388;29;20067;-72
2021/03/10 08:19:57;;;;;;;14.75;7.00;;;;;;;4.56;66.42;101295.81;4931038;29;20051;-73
2021/03/10 08:22:26;;;;;;;12.73;6.80;;;;;;;4.82;65.92;101304.06;4931433;29;20494;-73
2021/03/10 08:24:57;;;;;;;17.48;7.38;;;;;;;4.65;65.51;101286.00;4929892;29;20024;-73
2021/03/10 08:27:28;;;;;;;14.15;7.53;;;;;;;4.53;65.93;101294.53;4930191;29;20126;-71
2021/03/10 08:29:53;;;;;;;15.68;7.18;;;;;;;4.83;66.13;101293.09;4931664;29;20047;-73
2021/03/10 08:32:24;;;;;;;15.95;7.68;;;;;;;4.51;67.66;101302.03;4933957;29;20032;-72
2021/03/10 08:34:50;;;;;;;16.57;8.30;;;;;;;4.70;68.35;101293.91;4926179;29;20071;-73
2021/03/10 08:37:16;;;;;;;17.10;9.00;;;;;;;4.86;67.82;101287.16;4928665;29;20333;-73
2021/03/10 08:42:33;;;;;;;16.15;7.97;;;;;;;4.96;68.50;101292.25;4959335;28;20187;-74
2021/03/10 08:44:59;;;;;;;15.93;8.77;;;;;;;5.19;67.84;101304.53;4962287;28;20108;-74
2021/03/10 08:47:27;;;;;;;16.20;8.30;;;;;;;5.09;69.46;101301.31;4961334;28;20030;-74
2021/03/10 08:49:54;;;;;;;17.33;8.45;;;;;;;5.43;68.22;101313.06;4957429;28;20514;-73
2021/03/10 08:52:21;;;;;;;18.92;9.18;;;;;;;5.07;70.07;101298.94;4959470;28;20032;-73
2021/03/10 08:55:02;;;;;;;17.45;8.85;;;;;;;5.00;71.30;101303.13;4961618;28;20055;-76
2021/03/10 08:57:35;;;;;;;21.63;9.68;;;;;;;5.32;70.85;101290.34;4961567;28;20122;-73
2021/03/10 09:00:13;;;;;;;19.75;9.05;;;;;;;5.55;70.39;101290.34;4957620;28;20030;-74
2021/03/10 09:02:42;;;;;;;20.58;9.63;;;;;;;5.50;71.42;101286.69;4962313;28;20495;-74
2021/03/10 09:05:10;;;;;;;20.20;9.98;;;;;;;5.64;71.83;101278.63;4981571;28;20113;-77
2021/03/10 09:07:36;;;;;;;20.45;10.27;;;;;;;5.98;70.22;101270.78;4964941;28;20085;-74
2021/03/10 09:10:12;;;;;;;22.80;10.10;;;;;;;6.20;70.02;101265.38;4958766;28;20038;-75
2021/03/10 09:12:41;;;;;;;24.92;10.77;;;;;;;5.86;72.15;101269.81;4957890;28;20146;-74
2021/03/10 09:15:17;;;;;;;24.67;10.85;;;;;;;5.93;72.16;101262.13;4962812;28;20039;-73
2021/03/10 09:17:44;;;;;;;24.30;11.57;;;;;;;6.02;73.16;101255.72;4960948;28;20058;-75
2021/03/10 09:20:24;;;;;;;23.20;11.13;;;;;;;5.63;75.06;101262.91;4968341;28;20435;-73
2021/03/10 09:22:51;;;;;;;26.52;11.30;;;;;;;6.08;73.93;101264.38;4962427;28;20542;-76
2021/03/10 09:25:41;;;;;;;24.13;12.07;;;;;;;6.24;73.57;101258.31;4963560;28;20484;-74
2021/03/10 09:28:14;;;;;;;26.30;12.38;;;;;;;6.06;75.34;101256.66;4977666;28;20031;-75
2021/03/10 09:31:15;;;;;;;27.85;12.75;;;;;;;5.84;77.20;101250.63;4980008;28;20034;-74
2021/03/10 09:33:48;;;;;;;27.90;12.55;;;;;;;5.96;78.96;101242.81;4965911;28;20043;-74
2021/03/10 09:36:24;;;;;;;26.55;12.60;;;;;;;6.21;77.11;101242.88;4959850;28;20030;-74
2021/03/10 09:38:53;;;;;;;31.25;12.38;;;;;;;6.12;77.19;101239.41;4962589;28;20049;-74
2021/03/10 09:41:26;;;;;;;26.92;12.40;;;;;;;6.11;76.06;101232.50;4962679;28;20257;-75
2021/03/10 09:44:05;;;;;;;30.38;13.30;;;;;;;6.19;77.07;101242.41;4952980;28;20114;-74
2021/03/10 09:46:43;;;;;;;29.92;12.55;;;;;;;6.15;77.85;101238.78;4955582;28;20035;-74
2021/03/10 09:49:10;;;;;;;28.35;13.15;;;;;;;6.54;77.55;101240.59;4958449;28;20400;-74
2021/03/10 09:51:47;;;;;;;29.80;13.50;;;;;;;6.49;76.40;101237.28;4954720;28;20647;-73
2021/03/10 09:54:16;;;;;;;29.95;14.02;;;;;;;6.63;77.64;101238.72;4970930;28;20062;-73
2021/03/10 09:56:49;;;;;;;29.77;12.10;;;;;;;6.74;75.14;101231.16;4951862;28;20475;-73
2021/03/10 09:59:15;;;;;;;26.55;11.60;;;;;;;7.03;74.16;101234.78;4952900;28;20061;-73
2021/03/10 10:01:48;;;;;;;27.13;12.30;;;;;;;6.82;74.09;101231.16;4960600;28;20030;-72
2021/03/10 10:04:27;;;;;;;26.25;11.90;;;;;;;6.31;75.62;101226.53;4961650;28;20058;-73
2021/03/10 10:06:53;;;;;;;25.95;11.68;;;;;;;6.25;75.90;101219.00;4959356;28;20035;-73
2021/03/10 10:09:23;;;;;;;25.70;12.45;;;;;;;6.18;75.85;101214.09;4954032;28;20034;-73
2021/03/10 10:11:49;;;;;;;24.52;11.57;;;;;;;5.92;76.38;101223.13;4963970;28;20055;-72
2021/03/10 10:14:15;;;;;;;28.73;12.00;;;;;;;6.39;76.72;101223.09;4963063;28;20038;-72
2021/03/10 10:16:41;;;;;;;23.60;11.80;;;;;;;6.81;75.25;101216.22;4959467;28;20527;-73
2021/03/10 10:19:14;;;;;;;26.70;12.55;;;;;;;6.72;75.93;101219.97;4964544;28;20031;-73
2021/03/10 10:21:41;;;;;;;26.63;12.40;;;;;;;6.99;76.32;101223.13;4962367;28;20027;-73
2021/03/10 10:24:07;;;;;;;26.80;11.75;;;;;;;6.99;76.16;101215.09;4965366;28;20033;-73
2021/03/10 10:26:33;;;;;;;32.28;14.05;;;;;;;7.04;78.79;101217.63;4954801;28;20049;-73
2021/03/10 10:28:58;;;;;;;30.98;13.90;;;;;;;7.33;77.21;101233.03;4959878;28;20039;-73
2021/03/10 10:31:26;;;;;;;32.78;14.95;;;;;;;7.06;78.25;101210.06;4953003;28;20098;-73
2021/03/10 10:33:52;;;;;;;32.97;14.80;;;;;;;6.96;78.16;101207.72;4959118;28;20054;-73
2021/03/10 10:36:17;;;;;;;34.20;14.60;;;;;;;6.93;79.81;101205.66;4955776;28;20058;-73
2021/03/10 10:38:46;;;;;;;31.65;14.48;;;;;;;7.34;78.31;101199.00;4956851;28;20046;-73
2021/03/10 10:41:12;;;;;;;33.45;14.32;;;;;;;7.42;78.35;101206.19;4962673;28;20042;-73
2021/03/10 10:43:37;;;;;;;31.05;14.70;;;;;;;7.11;79.06;101201.84;4960936;28;20568;-73
2021/03/10 10:46:07;;;;;;;31.33;14.13;;;;;;;7.36;78.41;101207.47;4957640;28;20037;-73
2021/03/10 10:48:39;;;;;;;31.15;13.23;;;;;;;7.38;78.14;101197.22;4964251;28;20541;-73
2021/03/10 10:51:16;;;;;;;32.60;15.02;;;;;;;7.53;78.07;101192.13;4960643;28;20066;-74
2021/03/10 10:54:06;;;;;;;33.35;14.27;;;;;;;7.35;78.03;101184.47;4956600;28;20565;-74
2021/03/10 10:56:32;;;;;;;24.92;12.23;;;;;;;7.16;79.19;101188.28;4961541;28;20557;-73
2021/03/10 10:59:05;;;;;;;31.40;14.52;;;;;;;7.24;79.74;101182.13;4964470;28;20039;-73
2021/03/10 11:01:37;;;;;;;30.05;14.20;;;;;;;7.58;78.78;101181.25;4959515;28;20383;-73
2021/03/10 11:04:03;;;;;;;31.77;14.68;;;;;;;7.35;79.48;101184.47;4961704;28;20031;-73
2021/03/10 11:06:29;;;;;;;33.22;14.20;;;;;;;7.30;80.38;101190.78;4968298;28;20051;-73
2021/03/10 11:08:54;;;;;;;37.60;15.75;;;;;;;7.33;80.57;101192.84;4954351;28;20078;-74
2021/03/10 11:11:20;;;;;;;34.80;15.23;;;;;;;7.55;79.04;101178.44;4962881;28;20043;-75
2021/03/10 11:13:52;;;;;;;35.33;15.52;;;;;;;7.70;77.99;101199.34;4959525;28;20121;-74
2021/03/10 11:16:25;;;;;;;37.63;16.10;;;;;;;7.97;77.23;101198.91;4961956;28;20551;-74
2021/03/10 11:19:02;;;;;;;33.20;15.75;;;;;;;7.63;77.96;101189.09;4969891;28;20035;-74
2021/03/10 11:21:29;;;;;;;36.92;16.15;;;;;;;7.68;77.69;101183.59;4971077;28;20035;-74
2021/03/10 11:23:55;;;;;;;33.33;14.60;;;;;;;7.72;78.87;101184.50;4955640;28;20097;-74
2021/03/10 11:26:21;;;;;;;34.58;15.85;;;;;;;7.78;78.70;101179.75;4947693;28;20466;-74
2021/03/10 11:28:47;;;;;;;30.25;14.90;;;;;;;7.56;78.65;101180.78;4965684;28;20122;-74
2021/03/10 11:31:14;;;;;;;37.75;16.73;;;;;;;7.55;79.18;101181.13;4970133;28;20519;-73
2021/03/10 11:33:40;;;;;;;34.08;16.10;;;;;;;7.68;78.93;101177.44;4961903;28;20071;-73
2021/03/10 11:36:08;;;;;;;35.83;16.65;;;;;;;7.28;78.50;101184.97;4963002;28;20164;-73